West York, Pennsylvania
Current Conditions -  °F | °C
As of 5:53 PM on Wednesday 22 Oct 2014 (Local Time) from KTHV Reporting Station
Overcast Overcast  
Wind Chill: 54°   Ceiling: 2900
Heat Index: 54°   Visibility: 10mi
Dew Point: 45°   Wind: 12mph
Humidity: 72%   Direction: 360°N
Pressure: 29.95"   Gusts: 21mph
Location:  39.9718°N, 76.7746°W
Report Text: KTHV 222153Z AUTO 36010G18KT 10SM OVC029 12/07 A2995 RMK AO2 SLP145 T01220072
Loading
Personal Weather Stations






























Interactive Weather Map
Tropical Storm Tracking
New forecast layout! Learn more

10-Day Weather Forecast

Advertisements
Track Severe Weather on mobile